^^
Datos históricos de la estación: Murcia-Puente Tocinos
Diario Informe para Julio 23, 2019 Unidades:  Métrico    Ingés   Ambas
Diario Semanal Mensual Anual
  Máxima: Mínima: Promedio:
Temperatura: 29.8 °C 21.2 °C 25.4 °C
Punto de rocio: 20.8 °C 14.1 °C 18.2 °C
Humedad: 83% 39.5% 66%
Velocidad viento: 18km/h 0km/h 7.5km/h
Racha viento: 33.8km/h - -
Viento- - SE
Presión: 1019.1 hPa 1015.8 hPa -
Precipitación: 0.0 mm    
 
 
Tabla de datos para Julio 23, 2019
Hora Temperatura Punto de rocio Presión Viento Velocidad viento Racha viento Humedad Intensidad lluvia(por hora) Nubes
00:04 24.2 °C 20.6 °C 1018.5 hPa Calm   4.8 km/h 80.4% 0.0 mm
00:09 24.2 °C 20.7 °C 1018.5 hPa Calm   2.3 km/h 81% 0.0 mm
00:14 24.2 °C 20.7 °C 1018.5 hPa Calm   2.3 km/h 81% 0.0 mm
00:19 24.2 °C 20.7 °C 1018.5 hPa Calm   4.7 km/h 81% 0.0 mm
00:24 24.2 °C 20.7 °C 1018.5 hPa Calm   4.8 km/h 81% 0.0 mm
00:29 24.2 °C 20.7 °C 1018.5 hPa NNE 0.6 km/h 4.8 km/h 81% 0.0 mm
00:34 24.3 °C 20.8 °C 1018.6 hPa NNE 2.2 km/h 5.6 km/h 81% 0.0 mm
00:39 24.2 °C 20.7 °C 1018.6 hPa North 2.2 km/h 5.8 km/h 81% 0.0 mm
00:44 24.2 °C 20.7 °C 1018.6 hPa NO 2.2 km/h 6.4 km/h 81% 0.0 mm
00:49 24.2 °C 20.7 °C 1018.6 hPa NO 2.4 km/h 4.8 km/h 81% 0.0 mm
00:54 24.1 °C 20.6 °C 1018.6 hPa NO 2.9 km/h 5.6 km/h 81% 0.0 mm
00:59 24.1 °C 20.6 °C 1018.6 hPa NO 2.1 km/h 4.8 km/h 81% 0.0 mm
01:04 24.1 °C 20.6 °C 1018.6 hPa Calm   1.6 km/h 80.9% 0.0 mm
01:09 24.1 °C 20.4 °C 1018.5 hPa Calm   5.6 km/h 80% 0.0 mm
01:14 24.1 °C 20.4 °C 1018.5 hPa Calm   4.8 km/h 80% 0.0 mm
01:19 24 °C 20.4 °C 1018.5 hPa Oeste 0.6 km/h 7.4 km/h 80% 0.0 mm
01:24 23.9 °C 20.5 °C 1018.4 hPa Oeste 2.2 km/h 8 km/h 80.9% 0.0 mm
01:29 23.8 °C 20.4 °C 1018.4 hPa Oeste 2.8 km/h 8 km/h 81% 0.0 mm
01:34 23.8 °C 20.3 °C 1018.6 hPa Oeste 4.7 km/h 8 km/h 81% 0.0 mm
01:39 23.7 °C 20.4 °C 1018.6 hPa Oeste 4.3 km/h 8 km/h 82% 0.0 mm
01:44 23.7 °C 20.4 °C 1018.6 hPa Oeste 3.2 km/h 8 km/h 82% 0.0 mm
01:49 23.7 °C 20.4 °C 1018.6 hPa Oeste 2.4 km/h   82% 0.0 mm
01:54 23.7 °C 20.5 °C 1018.5 hPa Calm     82% 0.0 mm
01:59 23.7 °C 20.5 °C 1018.5 hPa Calm   5.6 km/h 82% 0.0 mm
02:04 23.7 °C 20.4 °C 1018.5 hPa Calm   5.8 km/h 82% 0.0 mm
02:09 23.7 °C 20.4 °C 1018.5 hPa NNO 0.8 km/h 6.4 km/h 82% 0.0 mm
02:14 23.7 °C 20.4 °C 1018.5 hPa NNO 3.2 km/h 4.8 km/h 82% 0.0 mm
02:19 23.7 °C 20.4 °C 1018.5 hPa NNO 2.5 km/h   82% 0.0 mm
02:24 23.6 °C 20.3 °C 1018.5 hPa Calm   7.4 km/h 82% 0.0 mm
02:29 23.6 °C 20.3 °C 1018.5 hPa Oeste 0.7 km/h 8 km/h 82% 0.0 mm
02:34 23.5 °C 20.2 °C 1018.5 hPa Oeste 2.9 km/h 6.4 km/h 82% 0.0 mm
02:39 23.4 °C 20.2 °C 1018.5 hPa Oeste 3.1 km/h 8 km/h 82% 0.0 mm
02:44 23.4 °C 20.2 °C 1018.5 hPa Oeste 3.9 km/h 8 km/h 82.2% 0.0 mm
02:49 23.4 °C 20.2 °C 1018.5 hPa ONO 3.6 km/h 6.4 km/h 82.5% 0.0 mm
02:54 23.4 °C 20.3 °C 1018.3 hPa ONO 2.9 km/h 6.4 km/h 83% 0.0 mm
02:59 23.4 °C 20.3 °C 1018.3 hPa ONO 2.1 km/h 3.7 km/h 82.8% 0.0 mm
03:04 23.3 °C 20.1 °C 1018.3 hPa Calm   3.2 km/h 82% 0.0 mm
03:09 23.3 °C 20.1 °C 1018.2 hPa Calm     82% 0.0 mm
03:14 23.3 °C 20.1 °C 1018.2 hPa Calm     82% 0.0 mm
03:19 23.2 °C 20 °C 1018.3 hPa Calm     82% 0.0 mm
03:24 23.2 °C 19.9 °C 1018.3 hPa Calm     82% 0.0 mm
03:29 23.2 °C 20 °C 1018.3 hPa Calm     82.4% 0.0 mm
03:34 23.2 °C 20.1 °C 1018.3 hPa Calm     83% 0.0 mm
03:39 23.1 °C 20.1 °C 1018.1 hPa Calm     83% 0.0 mm
03:44 23.1 °C 20.1 °C 1018.1 hPa Calm     83% 0.0 mm
03:49 23.2 °C 20.1 °C 1018.1 hPa Calm     83% 0.0 mm
03:54 23.2 °C 20.2 °C 1018.1 hPa Calm   7.6 km/h 83% 0.0 mm
03:59 23.2 °C 20.2 °C 1018.1 hPa Oeste 0.8 km/h 8 km/h 83% 0.0 mm
04:04 23.2 °C 20.2 °C 1018.1 hPa Oeste 2.9 km/h 8.4 km/h 83% 0.0 mm
04:09 23.2 °C 20.1 °C 1018.0 hPa Oeste 3.4 km/h 9.5 km/h 83% 0.0 mm
04:14 23.1 °C 20.1 °C 1018.0 hPa Oeste 5 km/h 11.1 km/h 83% 0.0 mm
04:19 23.1 °C 20.1 °C 1018.0 hPa Oeste 5.3 km/h 13.7 km/h 83% 0.0 mm
04:24 23.1 °C 20.1 °C 1017.9 hPa Oeste 6.5 km/h 14.5 km/h 83% 0.0 mm
04:29 23.1 °C 20.1 °C 1017.9 hPa ONO 6.6 km/h 11.3 km/h 83% 0.0 mm
04:34 23.1 °C 20.1 °C 1017.9 hPa Oeste 6.9 km/h 11.3 km/h 83% 0.0 mm
04:39 23.1 °C 20.1 °C 1017.9 hPa Oeste 6.5 km/h 11.3 km/h 83% 0.0 mm
04:44 23.1 °C 20.1 °C 1017.9 hPa OSO 5 km/h 8 km/h 83% 0.0 mm
04:49 23 °C 20 °C 1017.9 hPa OSO 4.9 km/h 8 km/h 83% 0.0 mm
04:54 23 °C 19.9 °C 1017.9 hPa OSO 4.7 km/h 8 km/h 83% 0.0 mm
04:59 23 °C 19.9 °C 1017.9 hPa SO 4.4 km/h 8 km/h 83% 0.0 mm
05:04 22.9 °C 19.8 °C 1017.9 hPa SO 3.9 km/h 9.5 km/h 82.6% 0.0 mm
05:09 22.8 °C 19.6 °C 1017.9 hPa Sur 4.3 km/h 10 km/h 81.8% 0.0 mm
05:14 22.7 °C 19.2 °C 1017.9 hPa SSO 5.8 km/h 11.1 km/h 81% 0.0 mm
05:19 22.5 °C 19 °C 1017.9 hPa SSO 6.2 km/h 11.9 km/h 81% 0.0 mm
05:24 22.3 °C 19 °C 1017.8 hPa SSO 7.6 km/h 11.3 km/h 81.7% 0.0 mm
05:29 22.2 °C 19 °C 1017.8 hPa SSO 7.6 km/h 11.3 km/h 82% 0.0 mm
05:34 22.2 °C 19 °C 1017.8 hPa SSO 7.6 km/h 11.3 km/h 82% 0.0 mm
05:39 22.1 °C 18.9 °C 1017.7 hPa SSO 7.8 km/h 13 km/h 82% 0.0 mm
05:44 22.1 °C 18.9 °C 1017.7 hPa SSO 8.4 km/h 12.9 km/h 82.1% 0.0 mm
05:49 22 °C 18.8 °C 1017.7 hPa SSO 8.2 km/h 11.3 km/h 82.2% 0.0 mm
05:54 21.9 °C 18.8 °C 1017.7 hPa SSO 7.6 km/h 11.9 km/h 82.4% 0.0 mm
05:59 21.9 °C 18.7 °C 1017.7 hPa SSO 7.8 km/h 11.3 km/h 82% 0.0 mm
06:04 21.9 °C 18.7 °C 1017.8 hPa SSO 8.4 km/h 11.3 km/h 82% 0.0 mm
06:09 21.9 °C 18.7 °C 1017.8 hPa SSO 7.9 km/h 10 km/h 82% 0.0 mm
06:14 21.8 °C 18.6 °C 1017.8 hPa SO 6.5 km/h 9.7 km/h 82% 0.0 mm
06:19 21.8 °C 18.6 °C 1017.8 hPa SO 6.5 km/h 10 km/h 82% 0.0 mm
06:24 21.8 °C 18.6 °C 1017.7 hPa SSO 6.5 km/h 9.7 km/h 82% 0.0 mm
06:29 21.7 °C 18.5 °C 1017.7 hPa SO 6.3 km/h 11.1 km/h 82% 0.0 mm
06:34 21.7 °C 18.5 °C 1017.7 hPa SSO 5.8 km/h 11.9 km/h 81.8% 0.0 mm
06:39 21.6 °C 18.3 °C 1017.7 hPa SSO 6.1 km/h 11.3 km/h 81.6% 0.0 mm
06:44 21.6 °C 18.4 °C 1017.7 hPa SSO 6.9 km/h 11.1 km/h 82% 0.0 mm
06:49 21.6 °C 18.4 °C 1017.7 hPa SSO 6.9 km/h 11.3 km/h 82% 0.0 mm
06:54 21.5 °C 18.3 °C 1017.6 hPa SSO 6.9 km/h 13 km/h 82% 0.0 mm
06:59 21.4 °C 18.2 °C 1017.6 hPa SSO 7.3 km/h 13.7 km/h 82% 0.0 mm
07:04 21.3 °C 18.2 °C 1017.8 hPa SSO 8.4 km/h 14.5 km/h 82% 0.0 mm
07:09 21.3 °C 18.1 °C 1017.8 hPa SSO 8.2 km/h 11.3 km/h 82% 0.0 mm
07:14 21.3 °C 18.1 °C 1017.8 hPa SSO 7.6 km/h 11.3 km/h 82% 0.0 mm
07:19 21.3 °C 18.1 °C 1018.0 hPa SO 7.3 km/h 11.3 km/h 82% 0.0 mm
07:24 21.3 °C 18.1 °C 1018.0 hPa SO 6.5 km/h 13.7 km/h 82% 0.0 mm
07:29 21.2 °C 18 °C 1018.0 hPa SO 6.7 km/h 14.5 km/h 82% 0.0 mm
07:34 21.3 °C 18.1 °C 1018.1 hPa SO 7.6 km/h 12.9 km/h 82% 0.0 mm
07:39 21.2 °C 18 °C 1018.1 hPa SO 7.1 km/h 9.7 km/h 82% 0.0 mm
07:44 21.2 °C 18 °C 1018.1 hPa SO 5.8 km/h 11.1 km/h 82% 0.0 mm
07:49 21.2 °C 17.9 °C 1018.1 hPa SO 5.9 km/h 11.3 km/h 82% 0.0 mm
07:54 21.2 °C 17.9 °C 1018.1 hPa OSO 6.5 km/h 11.3 km/h 82% 0.0 mm
07:59 21.2 °C 18 °C 1018.1 hPa SO 6.1 km/h 9.7 km/h 82% 0.0 mm
08:04 21.2 °C 18 °C 1018.4 hPa OSO 5 km/h 9.7 km/h 81.9% 0.0 mm
08:09 21.2 °C 17.8 °C 1018.4 hPa OSO 5 km/h 9.7 km/h 81% 0.0 mm
08:14 21.3 °C 17.9 °C 1018.4 hPa SO 5 km/h 9.7 km/h 81% 0.0 mm
08:19 21.3 °C 17.9 °C 1018.5 hPa SO 5 km/h 9.7 km/h 81% 0.0 mm
08:24 21.4 °C 18 °C 1018.5 hPa SO 5 km/h 10 km/h 81% 0.0 mm
08:29 21.4 °C 18 °C 1018.5 hPa OSO 5.3 km/h 10.3 km/h 81% 0.0 mm
08:34 21.5 °C 18 °C 1018.6 hPa OSO 6.5 km/h 11.3 km/h 80.7% 0.0 mm
08:39 21.6 °C 18 °C 1018.6 hPa OSO 6.5 km/h 11.3 km/h 80% 0.0 mm
08:44 21.6 °C 18 °C 1018.6 hPa Oeste 6.5 km/h 11.3 km/h 80% 0.0 mm
08:49 21.6 °C 18 °C 1018.6 hPa OSO 6.6 km/h 11.1 km/h 80% 0.0 mm
08:54 21.6 °C 18 °C 1018.6 hPa OSO 6.9 km/h 13 km/h 80% 0.0 mm
08:59 21.7 °C 18 °C 1018.6 hPa OSO 6.9 km/h 12.9 km/h 79.4% 0.0 mm
09:04 21.8 °C 18 °C 1018.8 hPa OSO 6.9 km/h 13.7 km/h 79% 0.0 mm
09:09 21.8 °C 18.1 °C 1018.8 hPa OSO 7.1 km/h 14.5 km/h 79% 0.0 mm
09:14 22.1 °C 18.1 °C 1018.8 hPa OSO 7.6 km/h 11.3 km/h 77.9% 0.0 mm
09:19 22.3 °C 18 °C 1018.8 hPa SO 7.3 km/h 11.3 km/h 76.9% 0.0 mm
09:24 22.4 °C 18 °C 1018.8 hPa OSO 6.5 km/h 13 km/h 76.2% 0.0 mm
09:29 22.6 °C 18 °C 1018.8 hPa OSO 6.9 km/h 14.8 km/h 75.4% 0.0 mm
09:34 22.7 °C 18 °C 1018.9 hPa SO 8.4 km/h 14.8 km/h 74.9% 0.0 mm
09:39 22.8 °C 17.9 °C 1018.9 hPa SO 8.4 km/h 14.5 km/h 73.6% 0.0 mm
09:44 22.8 °C 17.9 °C 1018.9 hPa OSO 8.7 km/h 11.3 km/h 73.6% 0.0 mm
09:49 22.9 °C 17.8 °C 1018.9 hPa OSO 8 km/h 11.9 km/h 73% 0.0 mm
09:54 23.1 °C 18.1 °C 1018.9 hPa SO 5.8 km/h 11.3 km/h 73.2% 0.0 mm
09:59 23.3 °C 17.9 °C 1018.9 hPa SO 5.6 km/h 13 km/h 71.8% 0.0 mm
10:04 23.4 °C 17.9 °C 1018.9 hPa SO 5 km/h 12.9 km/h 71.5% 0.0 mm
10:09 23.6 °C 18.1 °C 1018.9 hPa SSO 5.3 km/h 13 km/h 71.4% 0.0 mm
10:14 23.7 °C 18.1 °C 1018.9 hPa SSO 6.5 km/h 12.9 km/h 71% 0.0 mm
10:19 23.7 °C 18.1 °C 1019.0 hPa OSO 6.5 km/h 11.3 km/h 70.6% 0.0 mm
10:24 23.9 °C 18.1 °C 1019.0 hPa OSO 6.5 km/h 11.3 km/h 70% 0.0 mm
10:29 24.1 °C 18 °C 1019.0 hPa OSO 6.3 km/h 11.3 km/h 69% 0.0 mm
10:34 24.2 °C 17.8 °C 1019.0 hPa Oeste 5.8 km/h 12.2 km/h 67.5% 0.0 mm
10:39 24.3 °C 17.8 °C 1019.0 hPa ONO 5.9 km/h 13 km/h 67% 0.0 mm
10:44 24.3 °C 17.7 °C 1019.0 hPa OSO 6.5 km/h 10 km/h 66.6% 0.0 mm
10:49 24.5 °C 17.7 °C 1019.1 hPa SO 6.5 km/h 11.1 km/h 66% 0.0 mm
10:54 24.7 °C 17.9 °C 1019.1 hPa SO 6.5 km/h 11.3 km/h 66% 0.0 mm
10:59 24.9 °C 17.9 °C 1019.1 hPa Oeste 5.7 km/h 9.7 km/h 65.2% 0.0 mm
11:04 25.2 °C 18.1 °C 1019.1 hPa North 3.9 km/h 9.7 km/h 64.8% 0.0 mm
11:09 25.6 °C 18.1 °C 1018.8 hPa SSO 3.6 km/h 7.4 km/h 63.1% 0.0 mm
11:14 25.9 °C 17.9 °C 1018.8 hPa SSE 2.9 km/h 8.4 km/h 61.3% 0.0 mm
11:19 26.1 °C 18 °C 1018.8 hPa Sur 3.6 km/h 11.1 km/h 61% 0.0 mm
11:24 26.3 °C 18 °C 1018.8 hPa SO 5.8 km/h 11.3 km/h 60.5% 0.0 mm
11:29 26.4 °C 18.2 °C 1018.8 hPa SSO 5.3 km/h 8.4 km/h 61% 0.0 mm
11:34 26.6 °C 18.7 °C 1018.8 hPa ENE 3.9 km/h 14 km/h 61.8% 0.0 mm
11:39 26.8 °C 18.3 °C 1018.8 hPa NE 4.1 km/h 14.8 km/h 59.7% 0.0 mm
11:44 26.7 °C 18.3 °C 1018.8 hPa NE 5 km/h 11.3 km/h 60.2% 0.0 mm
11:49 26.7 °C 17.9 °C 1018.8 hPa ENE 5.3 km/h 16.7 km/h 58.6% 0.0 mm
11:54 26.8 °C 17.8 °C 1018.7 hPa NNE 6.5 km/h 16.7 km/h 58% 0.0 mm
11:59 26.9 °C 17.8 °C 1018.7 hPa ENE 6.6 km/h 16.1 km/h 57.5% 0.0 mm
12:04 27.2 °C 17.9 °C 1018.7 hPa Este 6.9 km/h 14.8 km/h 56.7% 0.0 mm
12:09 27.3 °C 17.4 °C 1018.7 hPa ENE 7.1 km/h 16.4 km/h 54.6% 0.0 mm
12:14 27.2 °C 16.9 °C 1018.7 hPa Este 7.6 km/h 19.8 km/h 53.5% 0.0 mm
12:19 27.1 °C 16.2 °C 1018.7 hPa NE 8.2 km/h 20.9 km/h 51.3% 0.0 mm
12:24 27.2 °C 16.4 °C 1018.6 hPa NE 10.3 km/h 20.9 km/h 51.9% 0.0 mm
12:29 27.6 °C 17.1 °C 1018.6 hPa Este 9 km/h 13 km/h 53% 0.0 mm
12:34 27.8 °C 16.8 °C 1018.6 hPa ENE 4.7 km/h 17.2 km/h 51.2% 0.0 mm
12:39 27.9 °C 16.6 °C 1018.5 hPa NE 6 km/h 18.5 km/h 50.1% 0.0 mm
12:44 27.8 °C 16.6 °C 1018.5 hPa ENE 10 km/h 19.3 km/h 50.7% 0.0 mm
12:49 27.8 °C 16.6 °C 1018.5 hPa ESE 9.4 km/h 16.7 km/h 50.5% 0.0 mm
12:54 28.2 °C 17.2 °C 1018.4 hPa ENE 7.6 km/h 16.1 km/h 51.4% 0.0 mm
12:59 28.3 °C 17.5 °C 1018.4 hPa NNE 7.6 km/h 16.1 km/h 52.2% 0.0 mm
13:04 28.3 °C 16.8 °C 1018.4 hPa Este 7.6 km/h 14.8 km/h 49.7% 0.0 mm
13:09 28.3 °C 16.7 °C 1018.2 hPa NE 7.6 km/h 16.7 km/h 49.4% 0.0 mm
13:14 28.5 °C 16.7 °C 1018.2 hPa NE 7.6 km/h 16.7 km/h 49.1% 0.0 mm
13:19 28.6 °C 16.6 °C 1018.2 hPa ENE 8.1 km/h 18.5 km/h 48.2% 0.0 mm
13:24 28.8 °C 16.3 °C 1018.0 hPa Este 10 km/h 20.9 km/h 46.7% 0.0 mm
13:29 28.8 °C 15.8 °C 1018.0 hPa ENE 10.3 km/h 20.9 km/h 45.4% 0.0 mm
13:34 28.8 °C 16.3 °C 1018.0 hPa NE 11.1 km/h 19.3 km/h 46.8% 0.0 mm
13:39 28.8 °C 15.9 °C 1017.9 hPa NE 10.8 km/h 24.1 km/h 45.5% 0.0 mm
13:44 29 °C 15.7 °C 1017.9 hPa ENE 10 km/h 24.1 km/h 44.4% 0.0 mm
13:49 28.9 °C 15.5 °C 1017.9 hPa NE 10.5 km/h 26.2 km/h 44.1% 0.0 mm
13:54 28.8 °C 15.7 °C 1017.8 hPa ENE 11.9 km/h 25.7 km/h 45% 0.0 mm
13:59 29 °C 15.5 °C 1017.8 hPa Este 11.4 km/h 22.2 km/h 44.1% 0.0 mm
14:04 29.2 °C 15.2 °C 1017.8 hPa ENE 10.3 km/h 22.5 km/h 42.7% 0.0 mm
14:09 29.3 °C 14.9 °C 1017.6 hPa ENE 10.8 km/h 22.5 km/h 41.6% 0.0 mm
14:14 29.3 °C 14.1 °C 1017.6 hPa ENE 12.2 km/h 24.1 km/h 39.5% 0.0 mm
14:19 29.3 °C 14.5 °C 1017.6 hPa Este 12.6 km/h 24.1 km/h 40.6% 0.0 mm
14:24 29.2 °C 15 °C 1017.6 hPa Este 13.7 km/h 24.5 km/h 42% 0.0 mm
14:29 29.2 °C 15.3 °C 1017.6 hPa ENE 13.3 km/h 27.8 km/h 43.1% 0.0 mm
14:34 29.2 °C 15.6 °C 1017.6 hPa NE 12.2 km/h 28.2 km/h 43.5% 0.0 mm
14:39 29.1 °C 14.8 °C 1017.3 hPa ENE 12.7 km/h 27.4 km/h 41.8% 0.0 mm
14:44 29.2 °C 15 °C 1017.3 hPa ENE 14 km/h 22.5 km/h 42.2% 0.0 mm
14:49 29.1 °C 15.4 °C 1017.3 hPa NE 13.6 km/h 32.8 km/h 43.4% 0.0 mm
14:54 29 °C 15.3 °C 1017.2 hPa NE 12.2 km/h 33.8 km/h 43.4% 0.0 mm
14:59 29.1 °C 15.1 °C 1017.2 hPa ENE 12.7 km/h 25.7 km/h 42.7% 0.0 mm
15:04 29.2 °C 15.6 °C 1017.2 hPa ENE 14 km/h 29.1 km/h 43.7% 0.0 mm
15:09 29.3 °C 14.6 °C 1017.0 hPa NE 14 km/h 29.6 km/h 40.9% 0.0 mm
15:14 29.3 °C 14.5 °C 1017.0 hPa ENE 14 km/h 24.1 km/h 40.5% 0.0 mm
15:19 29.6 °C 15.2 °C 1017.0 hPa ENE 13.1 km/h 20.9 km/h 41.6% 0.0 mm
15:24 29.6 °C 14.8 °C 1017.0 hPa ENE 10.3 km/h 23.3 km/h 40.6% 0.0 mm
15:29 29.3 °C 15.4 °C 1017.0 hPa NE 11.4 km/h 33.3 km/h 42.9% 0.0 mm
15:34 29.4 °C 15.6 °C 1017.0 hPa Este 14.8 km/h 33.8 km/h 43.3% 0.0 mm
15:39 29.6 °C 15.5 °C 1016.7 hPa NE 14.2 km/h 25.7 km/h 42.5% 0.0 mm
15:44 29.6 °C 15 °C 1016.7 hPa NE 12.2 km/h 29.6 km/h 41% 0.0 mm
15:49 29.6 °C 15.2 °C 1016.7 hPa NE 12.6 km/h 29 km/h 41.5% 0.0 mm
15:54 29.7 °C 15.6 °C 1016.5 hPa ENE 13.7 km/h 22.5 km/h 42.5% 0.0 mm
15:59 29.8 °C 15.6 °C 1016.5 hPa NE 13.3 km/h 22.2 km/h 42.2% 0.0 mm
16:04 29.8 °C 15.8 °C 1016.5 hPa ENE 12.2 km/h 22.5 km/h 42.7% 0.0 mm
16:09 29.8 °C 16 °C 1016.4 hPa ENE 12.2 km/h 22.5 km/h 43.3% 0.0 mm
16:14 29.7 °C 16.1 °C 1016.4 hPa NE 12.2 km/h 24.5 km/h 43.9% 0.0 mm
16:19 29.7 °C 16.4 °C 1016.4 hPa Este 11.8 km/h 29.1 km/h 44.6% 0.0 mm
16:24 29.6 °C 16.4 °C 1016.3 hPa ENE 10.3 km/h 29.6 km/h 45% 0.0 mm
16:29 29.4 °C 16.2 °C 1016.3 hPa NE 12 km/h 29 km/h 44.8% 0.0 mm
16:34 29.4 °C 16.2 °C 1016.3 hPa ENE 17.2 km/h 25.9 km/h 44.9% 0.0 mm
16:39 29.6 °C 16.4 °C 1016.2 hPa ENE 16.1 km/h 22.5 km/h 45% 0.0 mm
16:44 29.4 °C 16.5 °C 1016.2 hPa NE 13 km/h 29.6 km/h 45.7% 0.0 mm
16:49 29.4 °C 16.7 °C 1016.2 hPa NE 13.5 km/h 29 km/h 46.3% 0.0 mm
16:54 29.4 °C 16.6 °C 1016.1 hPa NE 14.8 km/h 27.4 km/h 46.1% 0.0 mm
16:59 29.5 °C 16.6 °C 1016.1 hPa NE 14.3 km/h 25.9 km/h 45.8% 0.0 mm
17:04 29.5 °C 16.9 °C 1016.1 hPa ENE 13 km/h 26.2 km/h 46.9% 0.0 mm
17:09 29.6 °C 17.1 °C 1016.0 hPa NE 13 km/h 27 km/h 47.1% 0.0 mm
17:14 29.4 °C 17.4 °C 1016.0 hPa ENE 13 km/h 27.4 km/h 48.4% 0.0 mm
17:19 29.3 °C 17.8 °C 1016.0 hPa ENE 13.5 km/h 25.9 km/h 49.7% 0.0 mm
17:24 29.3 °C 17.8 °C 1016.0 hPa ENE 14.8 km/h 30.6 km/h 49.9% 0.0 mm
17:29 29.3 °C 18 °C 1016.0 hPa ENE 14.4 km/h 30.6 km/h 50.4% 0.0 mm
17:34 29.5 °C 18.2 °C 1016.0 hPa ENE 13 km/h 25.6 km/h 50.8% 0.0 mm
17:39 29.3 °C 18 °C 1016.0 hPa ENE 12.8 km/h 25.9 km/h 50.7% 0.0 mm
17:44 29 °C 17.9 °C 1016.0 hPa ENE 11.9 km/h 25.7 km/h 51.1% 0.0 mm
17:49 28.9 °C 18.3 °C 1016.0 hPa ENE 12.6 km/h 24.1 km/h 53% 0.0 mm
17:54 28.8 °C 18 °C 1016.0 hPa NE 14.8 km/h 27.8 km/h 52% 0.0 mm
17:59 28.8 °C 17.9 °C 1016.0 hPa ENE 14.3 km/h 27.4 km/h 51.6% 0.0 mm
18:04 28.8 °C 17.4 °C 1016.0 hPa NE 13 km/h 25.9 km/h 50% 0.0 mm
18:09 28.8 °C 16.5 °C 1015.9 hPa NE 13.9 km/h 25.9 km/h 47.4% 0.0 mm
18:14 28.8 °C 17 °C 1015.9 hPa ENE 16.4 km/h 33.3 km/h 49% 0.0 mm
18:19 28.8 °C 16.8 °C 1015.9 hPa NE 16 km/h 33.8 km/h 48.3% 0.0 mm
18:24 28.7 °C 17.6 °C 1015.8 hPa NE 14.8 km/h 29 km/h 51.3% 0.0 mm
18:29 28.6 °C 17.6 °C 1015.8 hPa NE 15.2 km/h 27.8 km/h 51.4% 0.0 mm
18:34 28.5 °C 17.3 °C 1015.9 hPa NE 16.4 km/h 27.8 km/h 50.8% 0.0 mm
18:39 28.4 °C 17.4 °C 1015.9 hPa NE 16.4 km/h 29.8 km/h 51.5% 0.0 mm
18:44 28.4 °C 17 °C 1015.9 hPa NE 16.4 km/h 30.6 km/h 50.1% 0.0 mm
18:49 28.4 °C 16.7 °C 1015.9 hPa NE 16.8 km/h 33.5 km/h 49.2% 0.0 mm
18:54 28.3 °C 16.7 °C 1015.8 hPa NE 18 km/h 33.8 km/h 49.3% 0.0 mm
18:59 28.3 °C 16.6 °C 1015.8 hPa NE 17.6 km/h 27.8 km/h 49% 0.0 mm
19:04 28.3 °C 16.5 °C 1015.8 hPa ENE 16.4 km/h 27.4 km/h 48.8% 0.0 mm
19:09 28.3 °C 16.4 °C 1015.8 hPa NE 15.8 km/h 25.9 km/h 48.7% 0.0 mm
19:14 28.3 °C 16.2 °C 1015.8 hPa NE 14 km/h 26.2 km/h 48.1% 0.0 mm
19:19 28.2 °C 16.8 °C 1015.8 hPa NE 14.2 km/h 25.7 km/h 49.9% 0.0 mm
19:24 28.2 °C 16.7 °C 1015.8 hPa NE 14.8 km/h 25.9 km/h 49.8% 0.0 mm
19:29 28.1 °C 16.3 °C 1015.8 hPa NE 14.5 km/h 25.7 km/h 48.7% 0.0 mm
19:34 28.1 °C 16.4 °C 1015.8 hPa NE 13.7 km/h 25.9 km/h 48.9% 0.0 mm
19:39 28 °C 16.9 °C 1015.8 hPa ENE 13.5 km/h 25.7 km/h 50.9% 0.0 mm
19:44 27.8 °C 17.1 °C 1015.8 hPa NE 13 km/h 24.1 km/h 52% 0.0 mm
19:49 27.7 °C 16.8 °C 1015.8 hPa NE 13.3 km/h 24.1 km/h 51.6% 0.0 mm
19:54 27.7 °C 17 °C 1015.8 hPa NE 14 km/h 27.8 km/h 52.2% 0.0 mm
19:59 27.5 °C 17.3 °C 1015.8 hPa NE 14.2 km/h 27.4 km/h 53.5% 0.0 mm
20:04 27.4 °C 17.3 °C 1015.9 hPa NE 14.8 km/h 27.8 km/h 54% 0.0 mm
20:09 27.3 °C 17.6 °C 1015.9 hPa NE 14.5 km/h 25.9 km/h 55.1% 0.0 mm
20:14 27.3 °C 17.8 °C 1015.9 hPa ENE 13.7 km/h 25.7 km/h 56.2% 0.0 mm
20:19 27.2 °C 18 °C 1016.0 hPa NE 12.6 km/h 19.3 km/h 57% 0.0 mm
20:24 27.2 °C 18.1 °C 1016.0 hPa NE 9.5 km/h 20.4 km/h 57.6% 0.0 mm
20:29 27 °C 18.1 °C 1016.0 hPa ENE 9.5 km/h 20.9 km/h 58.3% 0.0 mm
20:34 26.9 °C 18.3 °C 1016.0 hPa NE 9.5 km/h 16.7 km/h 59.2% 0.0 mm
20:39 26.8 °C 18.4 °C 1016.0 hPa ENE 8.9 km/h 16.1 km/h 60.2% 0.0 mm
20:44 26.7 °C 18.6 °C 1016.0 hPa ENE 6.9 km/h 16.7 km/h 61.5% 0.0 mm
20:49 26.5 °C 18.7 °C 1016.1 hPa NE 7.4 km/h 17.2 km/h 62.4% 0.0 mm
20:54 26.3 °C 18.8 °C 1016.1 hPa NE 8.7 km/h 17.7 km/h 63.3% 0.0 mm
20:59 26.2 °C 18.9 °C 1016.1 hPa NE 8.9 km/h 16.7 km/h 64.1% 0.0 mm
21:04 26.1 °C 19 °C 1016.3 hPa NE 9.5 km/h 16.1 km/h 65% 0.0 mm
21:09 26 °C 19.1 °C 1016.3 hPa NE 9.6 km/h 16.1 km/h 65.7% 0.0 mm
21:14 25.9 °C 19.1 °C 1016.3 hPa NE 10 km/h 14.5 km/h 66% 0.0 mm
21:19 25.8 °C 19.2 °C 1016.4 hPa NE 9.4 km/h 13.7 km/h 66.9% 0.0 mm
21:24 25.7 °C 19.3 °C 1016.4 hPa NE 7.6 km/h 14.8 km/h 67.8% 0.0 mm
21:29 25.6 °C 19.4 °C 1016.4 hPa NE 8.1 km/h 14.8 km/h 68.7% 0.0 mm
21:34 25.5 °C 19.4 °C 1016.6 hPa NE 9.5 km/h 14.5 km/h 69.2% 0.0 mm
21:39 25.4 °C 19.6 °C 1016.6 hPa NE 9.2 km/h 15.6 km/h 70% 0.0 mm
21:44 25.4 °C 19.5 °C 1016.6 hPa NE 8.4 km/h 16.1 km/h 70% 0.0 mm
21:49 25.3 °C 19.4 °C 1016.8 hPa NE 8.4 km/h 15.6 km/h 70% 0.0 mm
21:54 25.3 °C 19.6 °C 1016.8 hPa NE 8.7 km/h 16.1 km/h 70.8% 0.0 mm
21:59 25.3 °C 19.7 °C 1016.8 hPa NE 8.7 km/h 13.7 km/h 71% 0.0 mm
22:04 25.3 °C 19.7 °C 1016.9 hPa NE 8.7 km/h 14.5 km/h 71% 0.0 mm
22:09 25.3 °C 19.6 °C 1016.9 hPa NE 8.6 km/h 12.9 km/h 71% 0.0 mm
22:14 25.2 °C 19.6 °C 1016.9 hPa NE 8.4 km/h 11.9 km/h 71% 0.0 mm
22:19 25.2 °C 19.6 °C 1017.0 hPa NE 8 km/h 11.3 km/h 71% 0.0 mm
22:24 25.2 °C 19.6 °C 1017.0 hPa NE 6.9 km/h 11.3 km/h 71% 0.0 mm
22:29 25.2 °C 19.5 °C 1017.0 hPa NE 6.4 km/h 8 km/h 71% 0.0 mm
22:34 25.1 °C 19.4 °C 1017.0 hPa NE 4.7 km/h 8.4 km/h 71% 0.0 mm
22:39 25.1 °C 19.6 °C 1017.0 hPa NE 4.7 km/h 8 km/h 71.5% 0.0 mm
22:44 25.1 °C 19.7 °C 1017.0 hPa NNE 4.7 km/h 8 km/h 72% 0.0 mm
22:49 25 °C 19.6 °C 1017.0 hPa NE 4.4 km/h 8 km/h 72% 0.0 mm
22:54 25 °C 19.6 °C 1017.0 hPa NE 3.9 km/h 8 km/h 72% 0.0 mm
22:59 24.9 °C 19.5 °C 1017.0 hPa ENE 3.9 km/h 8 km/h 72% 0.0 mm
23:04 24.9 °C 19.5 °C 1017.0 hPa ENE 3.9 km/h 8 km/h 72% 0.0 mm
23:09 24.9 °C 19.5 °C 1017.0 hPa NE 3 km/h 3.7 km/h 72% 0.0 mm
23:14 24.9 °C 19.7 °C 1017.0 hPa Calm   3.7 km/h 72.8% 0.0 mm
23:19 24.8 °C 19.6 °C 1017.1 hPa Calm   3.2 km/h 73% 0.0 mm
23:24 24.8 °C 19.6 °C 1017.1 hPa Calm   3.7 km/h 73% 0.0 mm
23:29 24.8 °C 19.6 °C 1017.1 hPa Calm   3.7 km/h 73% 0.0 mm
23:34 24.8 °C 19.6 °C 1017.1 hPa Calm   3.7 km/h 73% 0.0 mm
23:39 24.8 °C 19.6 °C 1017.0 hPa Calm   3.7 km/h 73% 0.0 mm
23:44 24.8 °C 19.6 °C 1017.0 hPa Calm   4.7 km/h 73% 0.0 mm
23:49 24.8 °C 19.6 °C 1017.0 hPa Calm   4.8 km/h 73% 0.0 mm
23:54 24.7 °C 19.6 °C 1016.9 hPa Calm     73% 0.0 mm
23:59 24.7 °C 19.6 °C 1016.9 hPa Calm     73% 0.0 mm
Murcia-Puente Tocinos, Espa?a
Compliments of Weather Underground - 3 mb

La estación de MeteoMurcia.com, publica sus datos en los siguientes proyectos:

Weather Underground PWS IMURCIAP2 Meteoclimatic www.awekas.at

Web Analytics

Clicky